Time;durP1;ratioP1;P1;durP2;ratioP2;P2;SDS_P1;SDS_P2;PMS_P1;PMS_P2;Temp;Humidity;BMP_temperature;BMP_pressure;BME280_temperature;BME280_humidity;BME280_pressure;Samples;Min_cycle;Max_cycle;Signal;HPM_P1;HPM_P2
2022/09/11 00:01:07;;;;;;;16.17;7.75;;;;;;;7.42;64.39;100151.88;5002938;28;20135;-71
2022/09/11 00:03:33;;;;;;;14.07;7.55;;;;;;;7.43;64.16;100156.22;5037417;28;20052;-71
2022/09/11 00:06:06;;;;;;;19.02;8.93;;;;;;;7.46;64.34;100153.41;5019199;28;20048;-73
2022/09/11 00:08:31;;;;;;;17.55;9.32;;;;;;;7.42;63.91;100150.06;5037276;28;20079;-71
2022/09/11 00:11:03;;;;;;;14.38;8.20;;;;;;;7.44;64.00;100144.69;5036259;28;20051;-72
2022/09/11 00:13:27;;;;;;;11.82;7.25;;;;;;;7.41;64.08;100152.78;5036373;28;20072;-62
2022/09/11 00:15:52;;;;;;;15.73;8.20;;;;;;;7.38;63.85;100148.50;5036417;28;20079;-64
2022/09/11 00:18:22;;;;;;;17.70;8.20;;;;;;;7.38;64.05;100145.84;5018344;28;20045;-62
2022/09/11 00:20:55;;;;;;;19.05;7.90;;;;;;;7.40;64.06;100145.78;5036365;28;20048;-67
2022/09/11 00:23:22;;;;;;;13.95;8.77;;;;;;;7.31;64.34;100155.06;5018072;28;20479;-74
2022/09/11 00:25:48;;;;;;;13.50;7.93;;;;;;;7.27;64.84;100161.44;5050452;28;20044;-62
2022/09/11 00:28:14;;;;;;;25.10;8.55;;;;;;;7.24;64.55;100156.28;5056792;28;20054;-67
2022/09/11 00:30:39;;;;;;;15.60;8.52;;;;;;;7.22;64.56;100150.22;5039025;28;20036;-83
2022/09/11 00:33:04;;;;;;;21.85;9.57;;;;;;;7.20;65.12;100146.78;5037612;28;20044;-66
2022/09/11 00:35:29;;;;;;;13.75;7.85;;;;;;;7.16;64.81;100147.84;5056131;28;20151;-70
2022/09/11 00:37:53;;;;;;;16.63;8.85;;;;;;;7.15;64.52;100138.19;5056554;28;20563;-66
2022/09/11 00:40:18;;;;;;;20.17;8.02;;;;;;;7.16;64.80;100148.72;5056524;28;20072;-67
2022/09/11 00:42:43;;;;;;;16.73;8.65;;;;;;;7.16;64.67;100153.16;5055893;28;20562;-67
2022/09/11 00:45:19;;;;;;;22.02;9.88;;;;;;;7.20;64.74;100154.72;5030492;28;20032;-63
2022/09/11 00:47:44;;;;;;;21.40;9.85;;;;;;;7.15;64.34;100147.00;5058384;28;20388;-62
2022/09/11 00:50:13;;;;;;;18.80;8.35;;;;;;;7.14;64.50;100147.06;5054167;28;20601;-62
2022/09/11 00:52:48;;;;;;;16.08;8.73;;;;;;;7.11;64.25;100145.41;5056702;28;20414;-62
2022/09/11 00:55:17;;;;;;;18.02;8.80;;;;;;;7.15;63.48;100154.09;5037612;28;20131;-62
2022/09/11 00:58:00;;;;;;;16.63;9.75;;;;;;;7.23;63.29;100159.84;5037591;28;20043;-62
2022/09/11 01:00:25;;;;;;;21.02;10.10;;;;;;;7.28;62.40;100144.59;5021383;28;20067;-63
2022/09/11 01:02:52;;;;;;;16.17;10.10;;;;;;;7.33;62.78;100142.59;5056916;28;20083;-63
2022/09/11 01:05:18;;;;;;;20.23;9.65;;;;;;;7.42;61.89;100147.41;5057638;28;20081;-64
2022/09/11 01:07:46;;;;;;;19.45;9.55;;;;;;;7.52;61.28;100147.81;5037470;28;20036;-70
2022/09/11 01:10:11;;;;;;;19.73;10.07;;;;;;;7.61;60.53;100145.53;5020813;28;20383;-70
2022/09/11 01:12:59;;;;;;;16.17;10.15;;;;;;;7.73;59.85;100149.34;5037871;28;20052;-71
2022/09/11 01:15:33;;;;;;;16.55;10.05;;;;;;;7.77;60.23;100150.06;5055808;28;20132;-72
2022/09/11 01:18:21;;;;;;;22.45;11.43;;;;;;;7.81;59.02;100143.63;5053372;28;20040;-69
2022/09/11 01:21:01;;;;;;;19.17;11.05;;;;;;;7.91;59.64;100143.06;5036599;28;20043;-70
2022/09/11 01:23:38;;;;;;;17.08;10.13;;;;;;;7.92;58.72;100146.59;5054714;28;20109;-72
2022/09/11 01:26:22;;;;;;;16.98;10.27;;;;;;;7.96;58.70;100142.84;5038717;28;20406;-73
2022/09/11 01:28:58;;;;;;;19.00;10.20;;;;;;;7.96;58.59;100142.84;5042231;28;20048;-72
2022/09/11 01:31:26;;;;;;;16.88;9.65;;;;;;;7.94;58.81;100139.41;5055809;28;20036;-72
2022/09/11 01:34:11;;;;;;;20.83;10.55;;;;;;;7.96;58.44;100133.09;5036376;28;20043;-70
2022/09/11 01:36:45;;;;;;;15.27;9.13;;;;;;;7.94;58.28;100134.09;5054179;28;20052;-72
2022/09/11 01:39:11;;;;;;;15.10;8.90;;;;;;;7.90;58.95;100136.03;5019917;28;20456;-72
2022/09/11 01:41:51;;;;;;;13.82;8.30;;;;;;;7.92;59.21;100125.34;5020651;28;20051;-71
2022/09/11 01:44:30;;;;;;;13.50;8.40;;;;;;;7.90;59.58;100128.09;5036202;28;20517;-73
2022/09/11 01:46:55;;;;;;;14.60;8.98;;;;;;;7.82;60.35;100134.75;5039501;28;20519;-70
2022/09/11 01:49:30;;;;;;;13.38;8.10;;;;;;;7.80;59.66;100126.84;5039085;28;20546;-71
2022/09/11 01:52:01;;;;;;;15.18;9.10;;;;;;;7.78;60.20;100130.56;5056765;28;20552;-70
2022/09/11 01:54:31;;;;;;;19.67;9.10;;;;;;;7.72;59.55;100125.53;5056834;28;20036;-71
2022/09/11 01:57:08;;;;;;;14.45;8.95;;;;;;;7.72;60.65;100118.44;5037144;28;20036;-70
2022/09/11 01:59:43;;;;;;;17.42;10.45;;;;;;;7.69;60.05;100117.72;5055804;28;20437;-71
2022/09/11 02:02:12;;;;;;;14.75;8.25;;;;;;;7.69;60.16;100117.72;5056059;28;20059;-71
2022/09/11 02:05:08;;;;;;;15.35;8.73;;;;;;;7.76;59.72;100113.84;5044130;28;20044;-75
2022/09/11 02:07:52;;;;;;;13.68;8.55;;;;;;;7.76;59.63;100121.81;5016710;28;20052;-72
2022/09/11 02:10:22;;;;;;;13.85;8.43;;;;;;;7.74;59.32;100121.88;5037145;28;20063;-69
2022/09/11 02:12:57;;;;;;;16.17;9.02;;;;;;;7.76;58.97;100124.47;5022438;28;20036;-69
2022/09/11 02:15:30;;;;;;;16.15;8.52;;;;;;;7.76;58.74;100119.16;5036526;28;20040;-69
2022/09/11 02:18:08;;;;;;;11.65;7.30;;;;;;;7.79;59.08;100122.47;5053421;28;20044;-69
2022/09/11 02:20:35;;;;;;;14.88;7.60;;;;;;;7.75;58.31;100118.28;5019988;28;20051;-68
2022/09/11 02:22:59;;;;;;;14.57;7.72;;;;;;;7.76;58.12;100119.16;5037724;28;20560;-71
2022/09/11 02:25:24;;;;;;;14.98;7.72;;;;;;;7.72;58.80;100121.09;5037989;28;20514;-69
2022/09/11 02:27:53;;;;;;;10.25;6.82;;;;;;;7.70;58.83;100124.75;5036299;28;20499;-69
2022/09/11 02:30:20;;;;;;;15.88;8.05;;;;;;;7.70;58.95;100122.09;5020524;28;20046;-68
2022/09/11 02:32:46;;;;;;;12.23;7.50;;;;;;;7.71;58.76;100121.16;5021621;28;20081;-66
2022/09/11 02:35:11;;;;;;;14.23;8.48;;;;;;;7.69;60.59;100120.38;5021335;28;20040;-68
2022/09/11 02:37:49;;;;;;;16.15;9.05;;;;;;;7.68;61.39;100123.97;5037480;28;20060;-71
2022/09/11 02:40:47;;;;;;;14.18;8.43;;;;;;;7.68;61.10;100121.31;5037698;28;20044;-68
2022/09/11 02:43:15;;;;;;;14.02;8.35;;;;;;;7.57;61.49;100114.78;5035086;28;20066;-69
2022/09/11 02:45:56;;;;;;;16.52;9.57;;;;;;;7.54;62.10;100117.63;5036643;28;20032;-68
2022/09/11 02:48:28;;;;;;;11.73;6.60;;;;;;;7.46;61.19;100111.81;5036168;28;20051;-72
2022/09/11 02:51:27;;;;;;;14.60;8.43;;;;;;;7.45;61.52;100118.06;5036869;28;20538;-72
2022/09/11 02:54:17;;;;;;;13.55;8.63;;;;;;;7.44;62.89;100113.72;5036170;28;20098;-71
2022/09/11 02:56:47;;;;;;;20.27;8.43;;;;;;;7.33;62.59;100116.06;5020069;28;20051;-71
2022/09/11 02:59:20;;;;;;;11.57;8.13;;;;;;;7.34;62.77;100117.75;5022712;28;20144;-71
2022/09/11 03:01:50;;;;;;;15.80;9.07;;;;;;;7.28;63.17;100116.28;5058396;28;20135;-71
2022/09/11 03:04:17;;;;;;;16.60;9.02;;;;;;;7.24;63.58;100114.72;5057454;28;20502;-72
2022/09/11 03:06:44;;;;;;;16.80;9.85;;;;;;;7.21;63.39;100120.19;5039828;28;20450;-70
2022/09/11 03:09:09;;;;;;;16.10;9.35;;;;;;;7.17;63.61;100110.66;5022510;28;20931;-70
2022/09/11 03:11:34;;;;;;;16.58;9.13;;;;;;;7.17;63.42;100121.25;5039293;28;20043;-69
2022/09/11 03:13:59;;;;;;;12.80;8.50;;;;;;;7.19;63.78;100106.13;5039144;28;20035;-70
2022/09/11 03:16:25;;;;;;;14.85;8.77;;;;;;;7.24;63.66;100106.75;5038982;28;20048;-63
2022/09/11 03:18:50;;;;;;;16.02;7.95;;;;;;;7.33;62.58;100109.91;5039105;28;20047;-67
2022/09/11 03:21:15;;;;;;;11.35;7.78;;;;;;;7.45;63.54;100102.16;5040229;28;20130;-63
2022/09/11 03:23:40;;;;;;;14.02;8.88;;;;;;;7.56;63.31;100101.63;5023802;28;20150;-64
2022/09/11 03:26:06;;;;;;;17.85;9.20;;;;;;;7.65;62.74;100096.69;5039727;28;20043;-67
2022/09/11 03:28:32;;;;;;;15.93;8.60;;;;;;;7.76;62.51;100097.91;5057478;28;20044;-69
2022/09/11 03:31:05;;;;;;;19.85;8.88;;;;;;;7.87;62.02;100088.44;5040510;28;20036;-63
2022/09/11 03:33:30;;;;;;;16.30;8.25;;;;;;;7.99;61.58;100093.09;5041569;28;20043;-62
2022/09/11 03:35:55;;;;;;;16.00;9.05;;;;;;;8.14;61.90;100094.06;5057517;28;20040;-63
2022/09/11 03:38:20;;;;;;;14.65;8.57;;;;;;;8.30;61.22;100089.63;5022306;28;20044;-63
2022/09/11 03:40:45;;;;;;;16.48;8.23;;;;;;;8.45;60.10;100095.06;5039600;28;20032;-63
2022/09/11 03:43:15;;;;;;;16.65;8.85;;;;;;;8.59;59.97;100095.16;5038836;28;20055;-62
2022/09/11 03:45:40;;;;;;;9.48;6.82;;;;;;;8.69;58.87;100091.06;5057547;28;20055;-63
2022/09/11 03:48:06;;;;;;;11.82;6.55;;;;;;;8.79;57.34;100091.38;5040549;28;20043;-64
2022/09/11 03:50:31;;;;;;;13.38;6.50;;;;;;;8.90;56.71;100088.97;5057105;28;20127;-63
2022/09/11 03:52:57;;;;;;;10.10;6.18;;;;;;;9.03;56.63;100087.28;5056408;28;20032;-62
2022/09/11 03:55:22;;;;;;;7.18;5.63;;;;;;;9.18;55.39;100090.88;5055348;28;20418;-63
2022/09/11 03:57:47;;;;;;;13.13;6.40;;;;;;;9.33;54.76;100074.88;5040316;28;20493;-62
2022/09/11 04:00:12;;;;;;;8.95;5.97;;;;;;;9.48;54.41;100081.06;5041755;28;20499;-63
2022/09/11 04:02:47;;;;;;;9.52;5.80;;;;;;;9.64;54.14;100087.19;5040266;28;20485;-64
2022/09/11 04:05:22;;;;;;;13.63;5.22;;;;;;;9.82;53.93;100080.72;5040039;28;20094;-62
2022/09/11 04:07:47;;;;;;;10.30;6.60;;;;;;;10.01;53.32;100079.59;5023408;28;20067;-63
2022/09/11 04:10:14;;;;;;;9.95;5.90;;;;;;;10.21;52.53;100073.91;5022029;28;20043;-63
2022/09/11 04:12:39;;;;;;;11.68;6.28;;;;;;;10.38;52.54;100081.72;5017809;28;20091;-63
2022/09/11 04:15:04;;;;;;;10.30;6.55;;;;;;;10.62;51.60;100081.06;5017909;28;20052;-63
2022/09/11 04:17:30;;;;;;;9.27;5.80;;;;;;;10.86;51.57;100087.47;5018038;28;20110;-64
2022/09/11 04:19:56;;;;;;;15.20;6.53;;;;;;;11.11;50.33;100087.56;5001310;28;20040;-63
2022/09/11 04:22:23;;;;;;;10.73;6.40;;;;;;;11.36;49.64;100088.59;5017669;28;20045;-64
2022/09/11 04:24:48;;;;;;;7.95;5.93;;;;;;;11.60;49.40;100087.78;5018070;28;20554;-64
2022/09/11 04:27:13;;;;;;;8.52;6.43;;;;;;;11.85;48.26;100072.78;5036147;28;20459;-64
2022/09/11 04:29:37;;;;;;;11.55;6.68;;;;;;;12.08;47.85;100077.31;5035851;28;20044;-72
2022/09/11 04:32:04;;;;;;;11.18;6.28;;;;;;;12.25;47.06;100082.34;5021879;28;20511;-71
2022/09/11 04:34:32;;;;;;;13.57;6.57;;;;;;;12.36;47.28;100076.22;5028655;28;20351;-72
2022/09/11 04:36:57;;;;;;;9.85;6.85;;;;;;;12.42;46.88;100077.59;5029916;28;20105;-72
2022/09/11 04:39:24;;;;;;;15.25;7.00;;;;;;;12.45;47.15;100083.59;5023125;28;20048;-71
2022/09/11 04:41:48;;;;;;;13.70;6.90;;;;;;;12.46;47.10;100079.94;5046657;28;20503;-70
2022/09/11 04:44:14;;;;;;;11.18;6.53;;;;;;;12.43;46.78;100077.47;5041222;28;20497;-70
2022/09/11 04:46:41;;;;;;;14.00;7.03;;;;;;;12.43;46.81;100077.47;5020971;28;20063;-70
2022/09/11 04:49:07;;;;;;;14.93;7.53;;;;;;;12.48;46.95;100075.34;5020881;28;20131;-70
2022/09/11 04:51:35;;;;;;;12.30;6.22;;;;;;;12.58;46.66;100081.72;5020713;28;20036;-70
2022/09/11 04:54:01;;;;;;;16.30;6.90;;;;;;;12.73;46.56;100077.09;5003786;28;20050;-64
2022/09/11 04:56:39;;;;;;;13.25;6.20;;;;;;;12.86;46.13;100079.72;5037073;28;20582;-63
2022/09/11 04:59:25;;;;;;;15.45;6.82;;;;;;;13.03;46.65;100081.97;5037316;28;20109;-69
2022/09/11 05:02:02;;;;;;;8.93;5.93;;;;;;;12.96;46.34;100078.06;5037002;28;20055;-69
2022/09/11 05:04:27;;;;;;;14.65;7.25;;;;;;;13.01;45.98;100083.91;5036792;28;20056;-70
2022/09/11 05:06:53;;;;;;;9.98;5.80;;;;;;;13.19;45.33;100081.75;5037148;28;20044;-72
2022/09/11 05:09:18;;;;;;;16.55;7.10;;;;;;;13.30;44.61;100079.09;5037046;28;20043;-72
2022/09/11 05:11:44;;;;;;;12.00;6.78;;;;;;;13.37;45.04;100086.53;5037321;28;20040;-71
2022/09/11 05:14:11;;;;;;;11.40;5.43;;;;;;;13.47;44.24;100083.16;5036057;28;20043;-71
2022/09/11 05:16:37;;;;;;;11.90;6.28;;;;;;;13.40;44.50;100074.75;5036636;28;20052;-72
2022/09/11 05:19:03;;;;;;;11.30;6.65;;;;;;;13.51;44.67;100081.97;5036414;28;20109;-72
2022/09/11 05:21:28;;;;;;;12.70;6.60;;;;;;;13.90;44.23;100080.69;5019465;28;20040;-71
2022/09/11 05:23:57;;;;;;;10.35;6.35;;;;;;;14.15;43.80;100075.97;5037318;28;20050;-72
2022/09/11 05:26:29;;;;;;;14.32;8.15;;;;;;;14.31;43.30;100082.81;5036717;28;20465;-71
2022/09/11 05:28:56;;;;;;;12.68;6.30;;;;;;;14.45;43.24;100074.50;5037918;28;20093;-72
2022/09/11 05:31:24;;;;;;;10.43;6.25;;;;;;;14.73;42.53;100084.72;5021290;28;20051;-72
2022/09/11 05:33:48;;;;;;;18.85;6.82;;;;;;;15.17;41.89;100088.25;5036586;28;20054;-72
2022/09/11 05:36:15;;;;;;;13.05;6.65;;;;;;;15.58;40.96;100085.63;5036448;28;20119;-72
2022/09/11 05:38:40;;;;;;;18.85;6.25;;;;;;;16.12;39.77;100075.66;5054311;28;20040;-72
2022/09/11 05:41:10;;;;;;;15.55;5.72;;;;;;;16.69;38.09;100075.03;5036896;28;20051;-71
2022/09/11 05:43:36;;;;;;;15.35;6.18;;;;;;;17.30;36.86;100082.91;5037157;28;20130;-72
2022/09/11 05:46:01;;;;;;;11.45;5.95;;;;;;;17.89;36.15;100082.72;5023945;28;20040;-71
2022/09/11 05:48:31;;;;;;;13.07;5.65;;;;;;;18.40;34.92;100076.84;5022464;28;20076;-71
2022/09/11 05:50:59;;;;;;;13.10;6.28;;;;;;;18.55;34.42;100070.97;5035244;28;20044;-71
2022/09/11 05:53:25;;;;;;;15.30;7.10;;;;;;;18.39;34.56;100080.59;5054272;28;20051;-74
2022/09/11 05:55:51;;;;;;;15.20;5.93;;;;;;;18.73;34.11;100066.50;5041653;28;20075;-73
2022/09/11 05:58:17;;;;;;;10.90;6.20;;;;;;;18.87;33.43;100071.38;5037700;28;20051;-73
2022/09/11 06:00:46;;;;;;;10.48;5.28;;;;;;;19.07;33.46;100069.41;5036368;28;20522;-73
2022/09/11 06:03:15;;;;;;;6.72;4.93;;;;;;;19.33;32.69;100064.06;5036552;28;20489;-71
2022/09/11 06:05:41;;;;;;;15.45;5.70;;;;;;;19.63;32.08;100061.00;5054195;28;20040;-71
2022/09/11 06:08:10;;;;;;;7.90;4.65;;;;;;;19.76;31.32;100056.00;5036462;28;20039;-72
2022/09/11 06:10:45;;;;;;;9.50;4.93;;;;;;;19.66;31.58;100060.66;5035826;28;20103;-71
2022/09/11 06:13:11;;;;;;;8.82;4.95;;;;;;;19.81;31.27;100050.13;5036029;28;20123;-72
2022/09/11 06:15:43;;;;;;;6.70;4.82;;;;;;;19.98;31.31;100051.09;5054355;28;20500;-71
2022/09/11 06:18:07;;;;;;;7.85;4.60;;;;;;;20.14;31.04;100056.59;5037121;28;20044;-73
2022/09/11 06:20:32;;;;;;;7.63;4.28;;;;;;;20.13;31.27;100055.72;5037608;28;20172;-73
2022/09/11 06:22:57;;;;;;;10.60;4.60;;;;;;;20.23;31.16;100059.16;5037477;28;20060;-72
2022/09/11 06:25:24;;;;;;;9.35;4.88;;;;;;;20.33;31.13;100053.63;5037391;28;20044;-71
2022/09/11 06:27:48;;;;;;;9.23;5.13;;;;;;;20.36;31.13;100061.47;5054741;28;20036;-71
2022/09/11 06:30:13;;;;;;;8.30;4.90;;;;;;;20.36;31.15;100061.47;5037372;28;20413;-71
2022/09/11 06:32:40;;;;;;;9.88;4.97;;;;;;;20.24;30.52;100049.19;5038653;28;20478;-72
2022/09/11 06:35:05;;;;;;;8.52;4.93;;;;;;;20.04;30.96;100045.03;5058345;28;20536;-72
2022/09/11 06:37:32;;;;;;;10.50;5.68;;;;;;;19.87;31.31;100047.63;5040387;28;20047;-73
2022/09/11 06:39:58;;;;;;;10.70;5.25;;;;;;;19.90;31.17;100052.72;5040414;28;20054;-72
2022/09/11 06:42:25;;;;;;;6.75;5.00;;;;;;;20.01;31.12;100042.63;5040596;28;20036;-72
2022/09/11 06:44:50;;;;;;;6.88;3.83;;;;;;;20.18;31.01;100049.84;5027570;28;20074;-72
2022/09/11 06:47:16;;;;;;;8.50;4.72;;;;;;;20.04;30.54;100047.72;5047249;28;20042;-72
2022/09/11 06:49:40;;;;;;;9.18;4.57;;;;;;;19.93;30.70;100041.59;5024227;28;20050;-72
2022/09/11 06:52:23;;;;;;;7.22;4.47;;;;;;;19.97;30.88;100038.56;5057593;28;20036;-72
2022/09/11 06:55:01;;;;;;;6.03;4.03;;;;;;;20.05;30.37;100035.91;5039860;28;20090;-72
2022/09/11 06:57:27;;;;;;;6.82;4.57;;;;;;;20.28;29.67;100042.44;5057708;28;20040;-74
2022/09/11 06:59:52;;;;;;;8.98;4.93;;;;;;;20.65;29.20;100040.25;5039776;28;20142;-65
2022/09/11 07:02:17;;;;;;;9.65;3.85;;;;;;;21.42;28.27;100040.09;5056009;28;20056;-65
2022/09/11 07:04:45;;;;;;;6.68;4.00;;;;;;;21.99;27.49;100041.75;5039749;28;20386;-63
2022/09/11 07:07:10;;;;;;;6.88;4.22;;;;;;;22.27;27.20;100042.16;5023255;28;20414;-62
2022/09/11 07:09:36;;;;;;;8.48;4.57;;;;;;;22.59;27.22;100041.19;5022648;28;20044;-63
2022/09/11 07:12:01;;;;;;;10.27;4.45;;;;;;;22.69;26.83;100038.25;5039159;28;20130;-63
2022/09/11 07:14:28;;;;;;;6.07;4.28;;;;;;;22.38;27.29;100033.63;5039328;28;20052;-63
2022/09/11 07:17:03;;;;;;;6.07;4.68;;;;;;;21.84;27.85;100040.72;5039319;28;20055;-61
2022/09/11 07:19:28;;;;;;;9.63;4.60;;;;;;;21.53;28.43;100037.03;5039037;28;20139;-64
2022/09/11 07:21:53;;;;;;;7.47;4.72;;;;;;;21.59;28.42;100028.19;5058860;28;20055;-61
2022/09/11 07:24:22;;;;;;;8.35;5.28;;;;;;;21.57;27.89;100038.38;5038994;28;20044;-62
2022/09/11 07:26:47;;;;;;;6.90;5.00;;;;;;;21.19;28.39;100034.47;5022577;28;20074;-63
2022/09/11 07:29:17;;;;;;;6.75;4.45;;;;;;;21.06;28.98;100034.09;5056681;28;20052;-63
2022/09/11 07:31:44;;;;;;;7.03;5.05;;;;;;;20.99;28.87;100025.78;5056099;28;20040;-63
2022/09/11 07:34:09;;;;;;;11.52;5.15;;;;;;;21.28;28.48;100012.63;5056941;28;20054;-64
2022/09/11 07:36:36;;;;;;;9.93;4.75;;;;;;;21.93;27.57;100015.25;5039230;28;20048;-63
2022/09/11 07:39:04;;;;;;;10.82;4.88;;;;;;;21.77;27.38;100017.16;5040086;28;20127;-62
2022/09/11 07:41:34;;;;;;;6.15;4.88;;;;;;;21.44;28.04;100016.34;5022130;28;20064;-63
2022/09/11 07:44:05;;;;;;;12.77;4.60;;;;;;;21.37;27.91;100018.88;5038572;28;20054;-63
2022/09/11 07:46:31;;;;;;;7.07;4.10;;;;;;;21.43;27.88;100014.66;5038871;28;20088;-64
2022/09/11 07:49:01;;;;;;;11.90;5.15;;;;;;;20.91;28.38;100014.91;5038949;28;20044;-63
2022/09/11 07:51:27;;;;;;;9.68;5.15;;;;;;;20.75;28.90;100009.47;5019236;28;20060;-65
2022/09/11 07:53:56;;;;;;;9.63;5.53;;;;;;;20.97;29.12;100012.41;5037163;28;20663;-64
2022/09/11 07:56:23;;;;;;;15.02;6.07;;;;;;;21.03;28.66;100010.88;5025946;28;20048;-64
2022/09/11 07:58:49;;;;;;;8.25;5.68;;;;;;;21.70;28.33;99996.13;5037669;28;20049;-64
2022/09/11 08:01:17;;;;;;;9.45;4.55;;;;;;;22.38;27.60;100000.19;5037044;28;20407;-64
2022/09/11 08:03:43;;;;;;;8.48;4.85;;;;;;;22.94;26.88;100009.06;5038849;28;20400;-63
2022/09/11 08:06:14;;;;;;;8.40;4.75;;;;;;;23.20;26.37;99989.69;5039230;28;20131;-61
2022/09/11 08:08:42;;;;;;;13.50;4.88;;;;;;;23.28;26.31;99984.16;5039047;28;20347;-72
2022/09/11 08:11:13;;;;;;;5.78;4.45;;;;;;;23.24;26.23;99991.88;5042520;28;20056;-72
2022/09/11 08:13:38;;;;;;;6.95;4.70;;;;;;;22.53;26.55;99982.13;5039021;28;20047;-72
2022/09/11 08:16:04;;;;;;;5.53;4.18;;;;;;;22.04;27.10;99995.91;5037419;28;20044;-72
2022/09/11 08:18:29;;;;;;;8.02;4.47;;;;;;;21.72;27.38;99994.09;5036938;28;20118;-68
2022/09/11 08:21:07;;;;;;;10.95;5.13;;;;;;;21.67;27.99;99985.59;5022810;28;20040;-71
2022/09/11 08:23:32;;;;;;;4.93;3.67;;;;;;;21.84;27.69;99981.00;5026533;28;20062;-71
2022/09/11 08:26:08;;;;;;;5.18;3.83;;;;;;;22.20;27.55;99977.88;5024881;28;20517;-73
2022/09/11 08:28:37;;;;;;;6.68;4.03;;;;;;;22.60;26.62;99974.94;5038638;28;20039;-73
2022/09/11 08:31:04;;;;;;;3.38;3.08;;;;;;;23.06;25.46;99980.44;5039515;28;20136;-73
2022/09/11 08:33:30;;;;;;;8.77;6.05;;;;;;;22.74;25.87;99970.63;5038563;28;20044;-71
2022/09/11 08:36:01;;;;;;;6.00;3.83;;;;;;;23.18;26.00;99977.13;5056476;28;20051;-72
2022/09/11 08:38:27;;;;;;;5.95;3.60;;;;;;;23.31;24.57;99965.63;5037877;28;20139;-72
2022/09/11 08:40:53;;;;;;;7.57;3.58;;;;;;;22.79;24.89;99963.66;5038605;28;20387;-72
2022/09/11 08:43:26;;;;;;;3.55;3.25;;;;;;;22.60;25.46;99964.06;5038540;28;20040;-75
2022/09/11 08:45:57;;;;;;;9.13;3.43;;;;;;;22.50;25.89;99951.72;5038251;28;20089;-72
2022/09/11 08:48:31;;;;;;;5.10;3.53;;;;;;;22.92;25.72;99957.59;5021626;28;20048;-72
2022/09/11 08:50:56;;;;;;;10.52;3.67;;;;;;;23.09;24.71;99955.59;5055260;28;20067;-71
2022/09/11 08:53:21;;;;;;;6.25;3.30;;;;;;;23.28;24.89;99956.97;5038396;28;20067;-71
2022/09/11 08:56:00;;;;;;;6.03;3.65;;;;;;;23.61;24.68;99955.66;5037052;28;20135;-70
2022/09/11 08:58:49;;;;;;;5.13;3.72;;;;;;;23.82;24.67;99941.31;5038129;28;20502;-71
2022/09/11 09:01:24;;;;;;;5.85;4.18;;;;;;;23.59;24.62;99956.91;5037756;28;20047;-71
2022/09/11 09:03:58;;;;;;;9.57;3.97;;;;;;;23.64;24.89;99960.72;5037714;28;20063;-72
2022/09/11 09:06:38;;;;;;;8.82;3.85;;;;;;;23.58;24.28;99950.59;5037819;28;20097;-71
2022/09/11 09:09:25;;;;;;;7.32;3.30;;;;;;;24.09;23.77;99943.38;5037333;28;20414;-72
2022/09/11 09:11:57;;;;;;;6.72;3.72;;;;;;;23.88;24.07;99946.00;5020911;28;20097;-73
2022/09/11 09:14:41;;;;;;;6.40;3.67;;;;;;;24.15;23.06;99947.22;5037397;28;20542;-73
2022/09/11 09:17:13;;;;;;;7.97;3.88;;;;;;;24.26;23.08;99960.41;5037037;28;20508;-70
2022/09/11 09:19:54;;;;;;;5.68;3.95;;;;;;;23.87;23.75;99955.22;5054204;28;20100;-70
2022/09/11 09:22:23;;;;;;;5.47;4.00;;;;;;;23.80;23.73;99948.84;5035836;28;20414;-70
2022/09/11 09:24:59;;;;;;;5.13;3.40;;;;;;;24.41;23.10;99952.19;5036584;28;20051;-71
2022/09/11 09:27:29;;;;;;;6.55;3.42;;;;;;;24.88;22.52;99959.84;5037703;28;20050;-71
2022/09/11 09:29:57;;;;;;;5.35;3.38;;;;;;;24.44;22.92;99952.66;5037522;28;20050;-71
2022/09/11 09:32:31;;;;;;;8.52;4.05;;;;;;;24.11;22.83;99945.91;5020465;28;20039;-71
2022/09/11 09:35:01;;;;;;;6.00;3.70;;;;;;;23.19;24.25;99950.75;5039162;28;20040;-70
2022/09/11 09:37:28;;;;;;;8.50;3.95;;;;;;;22.55;24.75;99952.91;5039594;28;20056;-71
2022/09/11 09:39:54;;;;;;;7.25;3.58;;;;;;;22.76;25.04;99942.25;5036641;28;20494;-71
2022/09/11 09:42:43;;;;;;;5.13;4.03;;;;;;;23.46;24.44;99942.03;5036834;28;20040;-72
2022/09/11 09:45:47;;;;;;;5.32;3.50;;;;;;;23.28;24.65;99949.66;5037252;28;20051;-72
2022/09/11 09:48:12;;;;;;;8.85;4.75;;;;;;;22.53;24.83;99944.09;5020190;28;20051;-72
2022/09/11 09:50:39;;;;;;;5.72;3.45;;;;;;;22.15;25.56;99951.22;5038140;28;20048;-73
2022/09/11 09:53:10;;;;;;;8.23;4.10;;;;;;;21.57;26.59;99955.09;5039301;28;20039;-64
2022/09/11 09:55:40;;;;;;;12.18;4.35;;;;;;;21.05;27.60;99949.19;5050922;28;20031;-63
2022/09/11 09:58:06;;;;;;;5.85;3.65;;;;;;;20.76;27.68;99957.81;5021129;28;20047;-63
2022/09/11 10:00:32;;;;;;;9.70;3.97;;;;;;;20.20;28.45;99955.78;5056026;28;20040;-63
2022/09/11 10:02:56;;;;;;;6.72;3.45;;;;;;;19.79;28.82;99946.63;5037550;28;20510;-63
2022/09/11 10:05:41;;;;;;;4.72;3.58;;;;;;;19.42;29.56;99947.72;5040094;28;20555;-62
2022/09/11 10:08:24;;;;;;;4.15;3.22;;;;;;;19.42;29.98;99950.41;5047724;28;20047;-63
2022/09/11 10:10:56;;;;;;;6.55;3.53;;;;;;;19.33;29.81;99950.53;5053177;28;20039;-63
2022/09/11 10:13:27;;;;;;;5.80;3.33;;;;;;;19.21;30.26;99945.38;5070734;28;20054;-64
2022/09/11 10:15:55;;;;;;;4.32;3.05;;;;;;;19.19;30.11;99958.19;5067128;28;20616;-63
2022/09/11 10:18:32;;;;;;;5.15;3.63;;;;;;;19.11;30.46;99943.75;5068322;28;20040;-64
2022/09/11 10:21:11;;;;;;;8.80;3.40;;;;;;;18.70;30.84;99945.28;5043193;28;20034;-64
2022/09/11 10:23:50;;;;;;;4.90;3.45;;;;;;;18.91;30.31;99939.56;5059776;28;20063;-63
2022/09/11 10:26:17;;;;;;;5.15;3.30;;;;;;;18.67;30.94;99945.56;5066909;28;20060;-64
2022/09/11 10:28:44;;;;;;;5.55;3.33;;;;;;;18.48;32.05;99949.25;5061061;28;20040;-65
2022/09/11 10:31:15;;;;;;;6.32;3.60;;;;;;;18.40;31.64;99941.88;5037608;28;20033;-64
2022/09/11 10:33:45;;;;;;;4.57;3.25;;;;;;;18.29;31.58;99942.09;5024377;28;20048;-65
2022/09/11 10:36:11;;;;;;;6.55;3.35;;;;;;;18.31;31.66;99945.50;5060702;28;20036;-65
2022/09/11 10:38:45;;;;;;;4.72;2.95;;;;;;;18.00;31.97;99939.56;5061805;28;20076;-64
2022/09/11 10:41:20;;;;;;;5.80;3.40;;;;;;;17.87;32.33;99944.47;5041049;28;20043;-63
2022/09/11 10:43:48;;;;;;;5.18;3.35;;;;;;;17.61;32.99;99936.16;5058188;28;20608;-66
2022/09/11 10:46:32;;;;;;;5.57;2.97;;;;;;;17.71;32.79;99939.72;5036589;28;20102;-64
2022/09/11 10:49:22;;;;;;;7.10;3.80;;;;;;;17.61;33.07;99933.44;5038909;28;20051;-67
2022/09/11 10:52:12;;;;;;;5.65;3.20;;;;;;;17.52;33.20;99937.03;5021711;28;20055;-64
2022/09/11 10:54:40;;;;;;;4.20;3.00;;;;;;;17.50;33.43;99922.84;5051066;28;20044;-64
2022/09/11 10:57:16;;;;;;;5.20;3.70;;;;;;;17.66;33.25;99931.22;5040241;28;20096;-63
2022/09/11 11:00:09;;;;;;;6.68;4.35;;;;;;;17.54;33.43;99924.25;5039938;28;20125;-63
2022/09/11 11:02:37;;;;;;;7.97;3.58;;;;;;;17.40;33.52;99924.72;5058176;28;20141;-63
2022/09/11 11:05:18;;;;;;;5.55;3.38;;;;;;;17.18;34.21;99928.59;5040185;28;20044;-64
2022/09/11 11:07:57;;;;;;;4.50;3.13;;;;;;;17.12;34.16;99915.72;5057214;28;20039;-64
2022/09/11 11:10:34;;;;;;;9.07;3.88;;;;;;;17.18;34.08;99916.97;5022234;28;20043;-64
2022/09/11 11:13:21;;;;;;;6.05;3.40;;;;;;;17.10;34.45;99906.94;5056752;28;20040;-66
2022/09/11 11:15:58;;;;;;;6.22;3.38;;;;;;;17.01;34.37;99908.66;5040180;28;20074;-62
2022/09/11 11:18:37;;;;;;;5.50;3.17;;;;;;;17.12;34.57;99910.34;5039332;28;20051;-64
2022/09/11 11:21:31;;;;;;;5.53;3.30;;;;;;;17.06;34.75;99906.38;5041064;28;20116;-67
2022/09/11 11:24:16;;;;;;;4.63;3.10;;;;;;;16.90;35.30;99910.66;5057973;28;20039;-70
2022/09/11 11:26:58;;;;;;;4.07;2.92;;;;;;;16.98;35.66;99903.56;5039611;28;20055;-67
2022/09/11 11:29:36;;;;;;;5.07;3.50;;;;;;;17.17;35.05;99902.66;5057994;28;20040;-68
2022/09/11 11:32:32;;;;;;;4.65;3.08;;;;;;;17.39;34.38;99905.00;5057675;28;20070;-67
2022/09/11 11:35:20;;;;;;;5.25;3.28;;;;;;;17.33;34.83;99896.69;5057485;28;20098;-68
2022/09/11 11:37:50;;;;;;;6.85;3.40;;;;;;;17.20;34.65;99894.28;5038805;28;20048;-68
2022/09/11 11:40:24;;;;;;;8.13;4.00;;;;;;;17.23;35.09;99901.25;5038251;28;20491;-68
2022/09/11 11:43:11;;;;;;;5.20;3.22;;;;;;;17.21;35.33;99889.75;5034812;28;20045;-67